sensor_id;sensor_type;location;lat;lon;timestamp;temperature;humidity
32201;DHT22;18701;45.588;5.288;2022-12-29T00:01:53;10.00;99.90
32201;DHT22;18701;45.588;5.288;2022-12-29T00:04:18;9.90;99.90
32201;DHT22;18701;45.588;5.288;2022-12-29T00:06:44;10.00;99.90
32201;DHT22;18701;45.588;5.288;2022-12-29T00:09:11;10.00;99.90
32201;DHT22;18701;45.588;5.288;2022-12-29T00:11:37;10.00;99.90
32201;DHT22;18701;45.588;5.288;2022-12-29T00:14:03;10.00;99.90
32201;DHT22;18701;45.588;5.288;2022-12-29T00:16:48;10.00;99.90
32201;DHT22;18701;45.588;5.288;2022-12-29T00:19:13;10.10;99.90
32201;DHT22;18701;45.588;5.288;2022-12-29T00:21:58;10.20;99.90
32201;DHT22;18701;45.588;5.288;2022-12-29T00:24:45;10.10;99.90
32201;DHT22;18701;45.588;5.288;2022-12-29T00:27:20;10.20;99.90
32201;DHT22;18701;45.588;5.288;2022-12-29T00:30:12;10.20;99.90
32201;DHT22;18701;45.588;5.288;2022-12-29T00:32:57;10.20;99.90
32201;DHT22;18701;45.588;5.288;2022-12-29T00:35:53;10.20;99.90
32201;DHT22;18701;45.588;5.288;2022-12-29T00:38:21;10.20;99.90
32201;DHT22;18701;45.588;5.288;2022-12-29T00:41:05;10.20;99.90
32201;DHT22;18701;45.588;5.288;2022-12-29T00:43:49;10.30;99.90
32201;DHT22;18701;45.588;5.288;2022-12-29T00:46:41;10.30;99.90
32201;DHT22;18701;45.588;5.288;2022-12-29T00:49:09;10.20;99.90
32201;DHT22;18701;45.588;5.288;2022-12-29T00:51:54;10.20;99.90
32201;DHT22;18701;45.588;5.288;2022-12-29T00:54:21;10.20;99.90
32201;DHT22;18701;45.588;5.288;2022-12-29T00:56:48;10.20;99.90
32201;DHT22;18701;45.588;5.288;2022-12-29T00:59:14;10.20;99.90
32201;DHT22;18701;45.588;5.288;2022-12-29T01:01:40;10.20;99.90
32201;DHT22;18701;45.588;5.288;2022-12-29T01:04:06;10.20;99.90
32201;DHT22;18701;45.588;5.288;2022-12-29T01:06:32;10.20;99.90
32201;DHT22;18701;45.588;5.288;2022-12-29T01:08:58;10.20;99.90
32201;DHT22;18701;45.588;5.288;2022-12-29T01:11:43;10.20;99.90
32201;DHT22;18701;45.588;5.288;2022-12-29T01:14:09;10.20;99.90
32201;DHT22;18701;45.588;5.288;2022-12-29T01:16:34;10.30;99.90
32201;DHT22;18701;45.588;5.288;2022-12-29T01:19:02;10.20;99.90
32201;DHT22;18701;45.588;5.288;2022-12-29T01:21:28;10.20;99.90
32201;DHT22;18701;45.588;5.288;2022-12-29T01:23:53;10.30;99.90
32201;DHT22;18701;45.588;5.288;2022-12-29T01:26:19;10.30;99.90
32201;DHT22;18701;45.588;5.288;2022-12-29T01:28:45;10.30;99.90
32201;DHT22;18701;45.588;5.288;2022-12-29T01:31:12;10.30;99.90
32201;DHT22;18701;45.588;5.288;2022-12-29T01:33:39;10.30;99.90
32201;DHT22;18701;45.588;5.288;2022-12-29T01:36:07;10.30;99.90
32201;DHT22;18701;45.588;5.288;2022-12-29T01:38:34;10.40;99.90
32201;DHT22;18701;45.588;5.288;2022-12-29T01:40:59;10.30;99.90
32201;DHT22;18701;45.588;5.288;2022-12-29T01:44:00;10.30;99.90
32201;DHT22;18701;45.588;5.288;2022-12-29T01:46:41;10.30;99.90
32201;DHT22;18701;45.588;5.288;2022-12-29T01:49:15;10.30;99.90
32201;DHT22;18701;45.588;5.288;2022-12-29T01:54:13;10.40;99.90
32201;DHT22;18701;45.588;5.288;2022-12-29T01:56:41;10.40;99.90
32201;DHT22;18701;45.588;5.288;2022-12-29T01:59:12;10.30;99.90
32201;DHT22;18701;45.588;5.288;2022-12-29T02:01:40;10.40;99.90
32201;DHT22;18701;45.588;5.288;2022-12-29T02:04:06;10.30;99.90
32201;DHT22;18701;45.588;5.288;2022-12-29T02:06:41;10.30;99.90
32201;DHT22;18701;45.588;5.288;2022-12-29T02:09:07;10.30;99.90
32201;DHT22;18701;45.588;5.288;2022-12-29T02:11:34;10.20;99.90
32201;DHT22;18701;45.588;5.288;2022-12-29T02:14:00;10.20;99.90
32201;DHT22;18701;45.588;5.288;2022-12-29T02:16:57;10.20;99.90
32201;DHT22;18701;45.588;5.288;2022-12-29T02:25:30;10.20;99.90
32201;DHT22;18701;45.588;5.288;2022-12-29T02:28:53;10.10;99.90
32201;DHT22;18701;45.588;5.288;2022-12-29T02:37:06;10.10;99.90
32201;DHT22;18701;45.588;5.288;2022-12-29T02:39:41;10.10;99.90
32201;DHT22;18701;45.588;5.288;2022-12-29T02:44:55;10.00;99.90
32201;DHT22;18701;45.588;5.288;2022-12-29T02:50:08;10.00;99.90
32201;DHT22;18701;45.588;5.288;2022-12-29T02:52:42;10.00;99.90
32201;DHT22;18701;45.588;5.288;2022-12-29T02:55:11;10.00;99.90
32201;DHT22;18701;45.588;5.288;2022-12-29T02:57:37;10.00;99.90
32201;DHT22;18701;45.588;5.288;2022-12-29T03:00:13;10.00;99.90
32201;DHT22;18701;45.588;5.288;2022-12-29T03:05:35;10.00;99.90
32201;DHT22;18701;45.588;5.288;2022-12-29T03:11:05;9.90;99.90
32201;DHT22;18701;45.588;5.288;2022-12-29T03:13:52;10.00;99.90
32201;DHT22;18701;45.588;5.288;2022-12-29T03:16:45;9.90;99.90
32201;DHT22;18701;45.588;5.288;2022-12-29T03:19:31;10.00;99.90
32201;DHT22;18701;45.588;5.288;2022-12-29T03:22:01;9.90;99.90
32201;DHT22;18701;45.588;5.288;2022-12-29T03:24:50;9.90;99.90
32201;DHT22;18701;45.588;5.288;2022-12-29T03:27:22;9.90;99.90
32201;DHT22;18701;45.588;5.288;2022-12-29T03:29:54;9.90;99.90
32201;DHT22;18701;45.588;5.288;2022-12-29T03:32:23;9.90;99.90
32201;DHT22;18701;45.588;5.288;2022-12-29T03:34:50;9.90;99.90
32201;DHT22;18701;45.588;5.288;2022-12-29T03:37:26;9.90;99.90
32201;DHT22;18701;45.588;5.288;2022-12-29T03:39:53;9.90;99.90
32201;DHT22;18701;45.588;5.288;2022-12-29T03:42:21;9.90;99.90
32201;DHT22;18701;45.588;5.288;2022-12-29T03:44:54;9.90;99.90
32201;DHT22;18701;45.588;5.288;2022-12-29T03:47:20;9.90;99.90
32201;DHT22;18701;45.588;5.288;2022-12-29T03:49:46;10.00;99.90
32201;DHT22;18701;45.588;5.288;2022-12-29T03:52:12;10.00;99.90
32201;DHT22;18701;45.588;5.288;2022-12-29T03:54:38;10.00;99.90
32201;DHT22;18701;45.588;5.288;2022-12-29T03:57:04;10.10;99.90
32201;DHT22;18701;45.588;5.288;2022-12-29T03:59:29;10.10;99.90
32201;DHT22;18701;45.588;5.288;2022-12-29T04:01:55;10.20;99.90
32201;DHT22;18701;45.588;5.288;2022-12-29T04:04:21;10.20;99.90
32201;DHT22;18701;45.588;5.288;2022-12-29T04:06:46;10.20;99.90
32201;DHT22;18701;45.588;5.288;2022-12-29T04:09:12;10.30;99.90
32201;DHT22;18701;45.588;5.288;2022-12-29T04:11:37;10.30;99.90
32201;DHT22;18701;45.588;5.288;2022-12-29T04:14:03;10.30;99.90
32201;DHT22;18701;45.588;5.288;2022-12-29T04:16:29;10.30;99.90
32201;DHT22;18701;45.588;5.288;2022-12-29T04:18:54;10.20;99.90
32201;DHT22;18701;45.588;5.288;2022-12-29T04:21:20;10.30;99.90
32201;DHT22;18701;45.588;5.288;2022-12-29T04:23:45;10.20;99.90
32201;DHT22;18701;45.588;5.288;2022-12-29T04:26:11;10.30;99.90
32201;DHT22;18701;45.588;5.288;2022-12-29T04:28:38;10.30;99.90
32201;DHT22;18701;45.588;5.288;2022-12-29T04:31:04;10.30;99.90
32201;DHT22;18701;45.588;5.288;2022-12-29T04:33:30;10.30;99.90
32201;DHT22;18701;45.588;5.288;2022-12-29T04:35:56;10.30;99.90
32201;DHT22;18701;45.588;5.288;2022-12-29T04:38:22;10.30;99.90
32201;DHT22;18701;45.588;5.288;2022-12-29T04:40:49;10.30;99.90
32201;DHT22;18701;45.588;5.288;2022-12-29T04:43:16;10.40;99.90
32201;DHT22;18701;45.588;5.288;2022-12-29T04:45:48;10.40;99.90
32201;DHT22;18701;45.588;5.288;2022-12-29T04:48:14;10.40;99.90
32201;DHT22;18701;45.588;5.288;2022-12-29T04:50:40;10.30;99.90
32201;DHT22;18701;45.588;5.288;2022-12-29T04:53:06;10.40;99.90
32201;DHT22;18701;45.588;5.288;2022-12-29T04:55:32;10.40;99.90
32201;DHT22;18701;45.588;5.288;2022-12-29T04:57:58;10.40;99.90
32201;DHT22;18701;45.588;5.288;2022-12-29T05:00:24;10.40;99.90
32201;DHT22;18701;45.588;5.288;2022-12-29T05:02:51;10.50;99.90
32201;DHT22;18701;45.588;5.288;2022-12-29T05:05:17;10.40;99.90
32201;DHT22;18701;45.588;5.288;2022-12-29T05:07:43;10.40;99.90
32201;DHT22;18701;45.588;5.288;2022-12-29T05:10:09;10.40;99.90
32201;DHT22;18701;45.588;5.288;2022-12-29T05:12:36;10.40;99.90
32201;DHT22;18701;45.588;5.288;2022-12-29T05:15:03;10.40;99.90
32201;DHT22;18701;45.588;5.288;2022-12-29T05:17:29;10.50;99.90
32201;DHT22;18701;45.588;5.288;2022-12-29T05:19:55;10.40;99.90
32201;DHT22;18701;45.588;5.288;2022-12-29T05:22:20;10.50;99.90
32201;DHT22;18701;45.588;5.288;2022-12-29T05:24:46;10.50;99.90
32201;DHT22;18701;45.588;5.288;2022-12-29T05:27:12;10.50;99.90
32201;DHT22;18701;45.588;5.288;2022-12-29T05:29:37;10.50;99.90
32201;DHT22;18701;45.588;5.288;2022-12-29T05:32:03;10.40;99.90
32201;DHT22;18701;45.588;5.288;2022-12-29T05:34:29;10.50;99.90
32201;DHT22;18701;45.588;5.288;2022-12-29T05:36:54;10.50;99.90
32201;DHT22;18701;45.588;5.288;2022-12-29T05:39:20;10.40;99.90
32201;DHT22;18701;45.588;5.288;2022-12-29T05:41:46;10.50;99.90
32201;DHT22;18701;45.588;5.288;2022-12-29T05:44:11;10.50;99.90
32201;DHT22;18701;45.588;5.288;2022-12-29T05:46:37;10.50;99.90
32201;DHT22;18701;45.588;5.288;2022-12-29T05:49:03;10.50;99.90
32201;DHT22;18701;45.588;5.288;2022-12-29T05:51:29;10.50;99.90
32201;DHT22;18701;45.588;5.288;2022-12-29T05:53:54;10.50;99.90
32201;DHT22;18701;45.588;5.288;2022-12-29T05:56:20;10.40;99.90
32201;DHT22;18701;45.588;5.288;2022-12-29T05:58:45;10.40;99.90
32201;DHT22;18701;45.588;5.288;2022-12-29T06:01:11;10.40;99.90
32201;DHT22;18701;45.588;5.288;2022-12-29T06:03:37;10.50;99.90
32201;DHT22;18701;45.588;5.288;2022-12-29T06:06:02;10.50;99.90
32201;DHT22;18701;45.588;5.288;2022-12-29T06:08:28;10.50;99.90
32201;DHT22;18701;45.588;5.288;2022-12-29T06:10:54;10.50;99.90
32201;DHT22;18701;45.588;5.288;2022-12-29T06:13:19;10.50;99.90
32201;DHT22;18701;45.588;5.288;2022-12-29T06:15:47;10.50;99.90
32201;DHT22;18701;45.588;5.288;2022-12-29T06:18:13;10.50;99.90
32201;DHT22;18701;45.588;5.288;2022-12-29T06:20:38;10.50;99.90
32201;DHT22;18701;45.588;5.288;2022-12-29T06:23:04;10.50;99.90
32201;DHT22;18701;45.588;5.288;2022-12-29T06:25:30;10.60;99.90
32201;DHT22;18701;45.588;5.288;2022-12-29T06:27:57;10.60;99.90
32201;DHT22;18701;45.588;5.288;2022-12-29T06:30:23;10.60;99.90
32201;DHT22;18701;45.588;5.288;2022-12-29T06:32:49;10.60;99.90
32201;DHT22;18701;45.588;5.288;2022-12-29T06:35:15;10.60;99.90
32201;DHT22;18701;45.588;5.288;2022-12-29T06:37:40;10.60;99.90
32201;DHT22;18701;45.588;5.288;2022-12-29T06:40:06;10.50;99.90
32201;DHT22;18701;45.588;5.288;2022-12-29T06:42:32;10.60;99.90
32201;DHT22;18701;45.588;5.288;2022-12-29T06:44:58;10.60;99.90
32201;DHT22;18701;45.588;5.288;2022-12-29T06:47:25;10.60;99.90
32201;DHT22;18701;45.588;5.288;2022-12-29T06:49:51;10.60;99.90
32201;DHT22;18701;45.588;5.288;2022-12-29T06:52:17;10.60;99.90
32201;DHT22;18701;45.588;5.288;2022-12-29T06:54:42;10.60;99.90
32201;DHT22;18701;45.588;5.288;2022-12-29T06:57:08;10.60;99.90
32201;DHT22;18701;45.588;5.288;2022-12-29T06:59:34;10.60;99.90
32201;DHT22;18701;45.588;5.288;2022-12-29T07:01:59;10.60;99.90
32201;DHT22;18701;45.588;5.288;2022-12-29T07:04:27;10.60;99.90
32201;DHT22;18701;45.588;5.288;2022-12-29T07:06:53;10.60;99.90
32201;DHT22;18701;45.588;5.288;2022-12-29T07:09:19;10.60;99.90
32201;DHT22;18701;45.588;5.288;2022-12-29T07:11:44;10.60;99.90
32201;DHT22;18701;45.588;5.288;2022-12-29T07:14:11;10.60;99.90
32201;DHT22;18701;45.588;5.288;2022-12-29T07:16:36;10.60;99.90
32201;DHT22;18701;45.588;5.288;2022-12-29T07:19:02;10.60;99.90
32201;DHT22;18701;45.588;5.288;2022-12-29T07:21:28;10.60;99.90
32201;DHT22;18701;45.588;5.288;2022-12-29T07:23:54;10.60;99.90
32201;DHT22;18701;45.588;5.288;2022-12-29T07:26:20;10.60;99.90
32201;DHT22;18701;45.588;5.288;2022-12-29T07:28:46;10.60;99.90
32201;DHT22;18701;45.588;5.288;2022-12-29T07:31:16;10.60;99.90
32201;DHT22;18701;45.588;5.288;2022-12-29T07:33:43;10.60;99.90
32201;DHT22;18701;45.588;5.288;2022-12-29T07:36:09;10.60;99.90
32201;DHT22;18701;45.588;5.288;2022-12-29T07:38:35;10.60;99.90
32201;DHT22;18701;45.588;5.288;2022-12-29T07:41:01;10.50;99.90
32201;DHT22;18701;45.588;5.288;2022-12-29T07:43:27;10.60;99.90
32201;DHT22;18701;45.588;5.288;2022-12-29T07:45:52;10.70;99.90
32201;DHT22;18701;45.588;5.288;2022-12-29T07:48:18;10.70;99.90
32201;DHT22;18701;45.588;5.288;2022-12-29T07:50:44;10.60;99.90
32201;DHT22;18701;45.588;5.288;2022-12-29T07:53:09;10.70;99.90
32201;DHT22;18701;45.588;5.288;2022-12-29T07:55:35;10.70;99.90
32201;DHT22;18701;45.588;5.288;2022-12-29T07:58:01;10.70;99.90
32201;DHT22;18701;45.588;5.288;2022-12-29T08:00:26;10.90;99.90
32201;DHT22;18701;45.588;5.288;2022-12-29T08:02:52;10.90;99.90
32201;DHT22;18701;45.588;5.288;2022-12-29T08:05:18;11.00;99.90
32201;DHT22;18701;45.588;5.288;2022-12-29T08:07:44;11.00;99.90
32201;DHT22;18701;45.588;5.288;2022-12-29T08:10:11;11.10;99.90
32201;DHT22;18701;45.588;5.288;2022-12-29T08:12:41;11.10;99.90
32201;DHT22;18701;45.588;5.288;2022-12-29T08:15:09;11.20;99.90
32201;DHT22;18701;45.588;5.288;2022-12-29T08:17:35;11.20;99.90
32201;DHT22;18701;45.588;5.288;2022-12-29T08:20:00;11.30;99.90
32201;DHT22;18701;45.588;5.288;2022-12-29T08:22:26;11.30;99.90
32201;DHT22;18701;45.588;5.288;2022-12-29T08:24:52;11.40;99.90
32201;DHT22;18701;45.588;5.288;2022-12-29T08:27:18;11.50;99.90
32201;DHT22;18701;45.588;5.288;2022-12-29T08:29:44;11.50;99.90
32201;DHT22;18701;45.588;5.288;2022-12-29T08:32:10;11.50;99.90
32201;DHT22;18701;45.588;5.288;2022-12-29T08:34:36;11.50;99.90
32201;DHT22;18701;45.588;5.288;2022-12-29T08:37:02;11.60;99.90
32201;DHT22;18701;45.588;5.288;2022-12-29T08:39:27;11.60;99.90
32201;DHT22;18701;45.588;5.288;2022-12-29T08:41:54;11.60;99.90
32201;DHT22;18701;45.588;5.288;2022-12-29T08:44:19;11.60;99.90
32201;DHT22;18701;45.588;5.288;2022-12-29T08:46:45;11.60;99.90
32201;DHT22;18701;45.588;5.288;2022-12-29T08:49:10;11.70;99.90
32201;DHT22;18701;45.588;5.288;2022-12-29T08:51:36;11.70;99.90
32201;DHT22;18701;45.588;5.288;2022-12-29T08:54:02;11.70;99.90
32201;DHT22;18701;45.588;5.288;2022-12-29T08:56:28;11.70;99.90
32201;DHT22;18701;45.588;5.288;2022-12-29T08:58:53;11.70;99.90
32201;DHT22;18701;45.588;5.288;2022-12-29T09:01:19;12.00;99.90
32201;DHT22;18701;45.588;5.288;2022-12-29T09:03:45;12.10;99.90
32201;DHT22;18701;45.588;5.288;2022-12-29T09:06:11;12.20;99.90
32201;DHT22;18701;45.588;5.288;2022-12-29T09:08:37;12.30;99.90
32201;DHT22;18701;45.588;5.288;2022-12-29T09:11:14;12.30;99.90
32201;DHT22;18701;45.588;5.288;2022-12-29T09:13:40;12.40;99.90
32201;DHT22;18701;45.588;5.288;2022-12-29T09:16:06;12.50;99.90
32201;DHT22;18701;45.588;5.288;2022-12-29T09:18:33;12.60;99.90
32201;DHT22;18701;45.588;5.288;2022-12-29T09:21:00;12.60;99.90
32201;DHT22;18701;45.588;5.288;2022-12-29T09:23:26;12.70;99.90
32201;DHT22;18701;45.588;5.288;2022-12-29T09:25:53;12.90;99.90
32201;DHT22;18701;45.588;5.288;2022-12-29T09:28:19;12.80;99.90
32201;DHT22;18701;45.588;5.288;2022-12-29T09:30:45;13.00;99.90
32201;DHT22;18701;45.588;5.288;2022-12-29T09:33:10;13.20;99.90
32201;DHT22;18701;45.588;5.288;2022-12-29T09:35:36;13.20;99.90
32201;DHT22;18701;45.588;5.288;2022-12-29T09:38:01;13.30;99.90
32201;DHT22;18701;45.588;5.288;2022-12-29T09:40:32;13.10;99.90
32201;DHT22;18701;45.588;5.288;2022-12-29T09:45:36;13.10;99.90
32201;DHT22;18701;45.588;5.288;2022-12-29T09:48:12;13.10;99.90
32201;DHT22;18701;45.588;5.288;2022-12-29T09:50:40;13.00;99.90
32201;DHT22;18701;45.588;5.288;2022-12-29T09:55:52;13.20;99.90
32201;DHT22;18701;45.588;5.288;2022-12-29T09:58:41;13.30;99.90
32201;DHT22;18701;45.588;5.288;2022-12-29T10:03:55;13.50;99.90
32201;DHT22;18701;45.588;5.288;2022-12-29T10:06:39;13.60;99.90
32201;DHT22;18701;45.588;5.288;2022-12-29T10:17:55;14.10;99.90
32201;DHT22;18701;45.588;5.288;2022-12-29T10:20:45;14.20;99.90
32201;DHT22;18701;45.588;5.288;2022-12-29T10:23:22;14.30;99.90
32201;DHT22;18701;45.588;5.288;2022-12-29T10:25:53;14.30;99.90
32201;DHT22;18701;45.588;5.288;2022-12-29T10:28:34;14.20;99.90
32201;DHT22;18701;45.588;5.288;2022-12-29T10:31:05;14.20;99.90
32201;DHT22;18701;45.588;5.288;2022-12-29T10:33:40;14.40;99.90
32201;DHT22;18701;45.588;5.288;2022-12-29T10:36:38;14.30;99.90
32201;DHT22;18701;45.588;5.288;2022-12-29T10:41:44;14.40;99.90
32201;DHT22;18701;45.588;5.288;2022-12-29T10:44:14;14.40;99.90
32201;DHT22;18701;45.588;5.288;2022-12-29T10:46:42;14.20;99.90
32201;DHT22;18701;45.588;5.288;2022-12-29T10:49:16;14.40;99.90
32201;DHT22;18701;45.588;5.288;2022-12-29T10:51:42;14.60;99.90
32201;DHT22;18701;45.588;5.288;2022-12-29T10:54:20;14.30;99.90
32201;DHT22;18701;45.588;5.288;2022-12-29T10:56:53;14.10;99.90
32201;DHT22;18701;45.588;5.288;2022-12-29T10:59:25;14.40;99.90
32201;DHT22;18701;45.588;5.288;2022-12-29T11:01:58;14.30;99.90
32201;DHT22;18701;45.588;5.288;2022-12-29T11:07:24;13.90;99.90
32201;DHT22;18701;45.588;5.288;2022-12-29T11:09:52;14.00;99.90
32201;DHT22;18701;45.588;5.288;2022-12-29T11:12:27;14.00;99.90
32201;DHT22;18701;45.588;5.288;2022-12-29T11:15:13;14.00;99.90
32201;DHT22;18701;45.588;5.288;2022-12-29T11:17:47;14.00;99.90
32201;DHT22;18701;45.588;5.288;2022-12-29T11:20:38;14.30;99.90
32201;DHT22;18701;45.588;5.288;2022-12-29T11:23:21;14.20;99.90
32201;DHT22;18701;45.588;5.288;2022-12-29T11:26:06;14.10;99.90
32201;DHT22;18701;45.588;5.288;2022-12-29T11:28:32;14.00;99.90
32201;DHT22;18701;45.588;5.288;2022-12-29T11:31:03;13.90;99.90
32201;DHT22;18701;45.588;5.288;2022-12-29T11:33:30;13.90;99.90
32201;DHT22;18701;45.588;5.288;2022-12-29T11:36:19;14.00;99.90
32201;DHT22;18701;45.588;5.288;2022-12-29T11:38:50;13.90;99.90
32201;DHT22;18701;45.588;5.288;2022-12-29T11:41:28;14.00;99.90
32201;DHT22;18701;45.588;5.288;2022-12-29T11:43:58;14.00;99.90
32201;DHT22;18701;45.588;5.288;2022-12-29T11:46:33;14.00;99.90
32201;DHT22;18701;45.588;5.288;2022-12-29T11:49:00;14.10;99.90
32201;DHT22;18701;45.588;5.288;2022-12-29T11:51:29;14.10;99.90
32201;DHT22;18701;45.588;5.288;2022-12-29T11:54:01;14.10;99.90
32201;DHT22;18701;45.588;5.288;2022-12-29T12:01:51;14.80;99.90
32201;DHT22;18701;45.588;5.288;2022-12-29T12:04:19;14.60;99.90
32201;DHT22;18701;45.588;5.288;2022-12-29T12:09:29;14.40;99.90
32201;DHT22;18701;45.588;5.288;2022-12-29T12:11:57;14.20;99.90
32201;DHT22;18701;45.588;5.288;2022-12-29T12:14:36;14.30;99.90
32201;DHT22;18701;45.588;5.288;2022-12-29T12:17:12;14.40;99.90
32201;DHT22;18701;45.588;5.288;2022-12-29T12:22:37;14.10;99.90
32201;DHT22;18701;45.588;5.288;2022-12-29T12:25:14;14.10;99.90
32201;DHT22;18701;45.588;5.288;2022-12-29T12:28:06;14.00;99.90
32201;DHT22;18701;45.588;5.288;2022-12-29T12:30:40;14.10;99.90
32201;DHT22;18701;45.588;5.288;2022-12-29T12:33:28;13.90;99.90
32201;DHT22;18701;45.588;5.288;2022-12-29T12:39:06;13.90;99.90
32201;DHT22;18701;45.588;5.288;2022-12-29T12:42:17;13.80;99.90
32201;DHT22;18701;45.588;5.288;2022-12-29T12:47:54;13.80;99.90
32201;DHT22;18701;45.588;5.288;2022-12-29T12:50:49;13.90;99.90
32201;DHT22;18701;45.588;5.288;2022-12-29T12:55:52;14.60;99.90
32201;DHT22;18701;45.588;5.288;2022-12-29T13:22:47;14.20;99.90
32201;DHT22;18701;45.588;5.288;2022-12-29T13:30:48;14.00;99.90
32201;DHT22;18701;45.588;5.288;2022-12-29T13:36:10;14.20;99.90
32201;DHT22;18701;45.588;5.288;2022-12-29T13:38:45;14.20;99.90
32201;DHT22;18701;45.588;5.288;2022-12-29T13:41:25;14.40;99.90
32201;DHT22;18701;45.588;5.288;2022-12-29T13:43:54;14.30;99.90
32201;DHT22;18701;45.588;5.288;2022-12-29T13:46:24;14.30;99.90
32201;DHT22;18701;45.588;5.288;2022-12-29T13:48:56;14.10;99.90
32201;DHT22;18701;45.588;5.288;2022-12-29T13:51:25;14.00;99.90
32201;DHT22;18701;45.588;5.288;2022-12-29T13:54:18;14.00;99.90
32201;DHT22;18701;45.588;5.288;2022-12-29T13:59:48;13.90;99.90
32201;DHT22;18701;45.588;5.288;2022-12-29T14:02:25;13.70;99.90
32201;DHT22;18701;45.588;5.288;2022-12-29T14:05:03;13.70;99.90
32201;DHT22;18701;45.588;5.288;2022-12-29T14:07:36;13.70;99.90
32201;DHT22;18701;45.588;5.288;2022-12-29T14:10:02;13.60;99.90
32201;DHT22;18701;45.588;5.288;2022-12-29T14:12:31;13.50;99.90
32201;DHT22;18701;45.588;5.288;2022-12-29T14:17:37;13.50;99.90
32201;DHT22;18701;45.588;5.288;2022-12-29T14:20:04;13.40;99.90
32201;DHT22;18701;45.588;5.288;2022-12-29T14:22:33;13.40;99.90
32201;DHT22;18701;45.588;5.288;2022-12-29T14:24:59;13.40;99.90
32201;DHT22;18701;45.588;5.288;2022-12-29T14:29:53;13.30;99.90
32201;DHT22;18701;45.588;5.288;2022-12-29T14:34:58;13.30;99.90
32201;DHT22;18701;45.588;5.288;2022-12-29T14:37:32;13.30;99.90
32201;DHT22;18701;45.588;5.288;2022-12-29T14:42:29;13.20;99.90
32201;DHT22;18701;45.588;5.288;2022-12-29T14:45:02;13.20;99.90
32201;DHT22;18701;45.588;5.288;2022-12-29T14:53:02;13.20;99.90
32201;DHT22;18701;45.588;5.288;2022-12-29T14:55:43;13.20;99.90
32201;DHT22;18701;45.588;5.288;2022-12-29T15:00:51;13.10;99.90
32201;DHT22;18701;45.588;5.288;2022-12-29T15:03:27;13.10;99.90
32201;DHT22;18701;45.588;5.288;2022-12-29T15:06:07;13.10;99.90
32201;DHT22;18701;45.588;5.288;2022-12-29T15:08:47;13.00;99.90
32201;DHT22;18701;45.588;5.288;2022-12-29T15:11:24;13.00;99.90
32201;DHT22;18701;45.588;5.288;2022-12-29T15:13:50;13.10;99.90
32201;DHT22;18701;45.588;5.288;2022-12-29T15:16:26;13.00;99.90
32201;DHT22;18701;45.588;5.288;2022-12-29T15:18:54;13.00;99.90
32201;DHT22;18701;45.588;5.288;2022-12-29T15:21:31;13.00;99.90
32201;DHT22;18701;45.588;5.288;2022-12-29T15:23:57;13.00;99.90
32201;DHT22;18701;45.588;5.288;2022-12-29T15:26:23;13.00;99.90
32201;DHT22;18701;45.588;5.288;2022-12-29T15:29:01;13.00;99.90
32201;DHT22;18701;45.588;5.288;2022-12-29T15:31:27;13.00;99.90
32201;DHT22;18701;45.588;5.288;2022-12-29T15:34:01;13.00;99.90
32201;DHT22;18701;45.588;5.288;2022-12-29T15:36:29;13.00;99.90
32201;DHT22;18701;45.588;5.288;2022-12-29T15:38:55;13.00;99.90
32201;DHT22;18701;45.588;5.288;2022-12-29T15:41:36;13.00;99.90
32201;DHT22;18701;45.588;5.288;2022-12-29T15:46:52;13.00;99.90
32201;DHT22;18701;45.588;5.288;2022-12-29T15:49:18;12.90;99.90
32201;DHT22;18701;45.588;5.288;2022-12-29T15:51:44;13.00;99.90
32201;DHT22;18701;45.588;5.288;2022-12-29T15:54:31;13.00;99.90
32201;DHT22;18701;45.588;5.288;2022-12-29T15:56:57;12.90;99.90
32201;DHT22;18701;45.588;5.288;2022-12-29T15:59:30;12.90;99.90
32201;DHT22;18701;45.588;5.288;2022-12-29T16:01:57;12.90;99.90
32201;DHT22;18701;45.588;5.288;2022-12-29T16:04:27;13.00;99.90
32201;DHT22;18701;45.588;5.288;2022-12-29T16:07:04;12.90;99.90
32201;DHT22;18701;45.588;5.288;2022-12-29T16:09:42;12.90;99.90
32201;DHT22;18701;45.588;5.288;2022-12-29T16:12:19;12.90;99.90
32201;DHT22;18701;45.588;5.288;2022-12-29T16:14:48;12.90;99.90
32201;DHT22;18701;45.588;5.288;2022-12-29T16:17:20;12.90;99.90
32201;DHT22;18701;45.588;5.288;2022-12-29T16:20:01;12.90;99.90
32201;DHT22;18701;45.588;5.288;2022-12-29T16:22:32;12.80;99.90
32201;DHT22;18701;45.588;5.288;2022-12-29T16:25:27;12.80;99.90
32201;DHT22;18701;45.588;5.288;2022-12-29T16:27:51;12.80;99.90
32201;DHT22;18701;45.588;5.288;2022-12-29T16:30:23;12.80;99.90
32201;DHT22;18701;45.588;5.288;2022-12-29T16:33:01;12.80;99.90
32201;DHT22;18701;45.588;5.288;2022-12-29T16:38:16;12.80;99.90
32201;DHT22;18701;45.588;5.288;2022-12-29T16:41:02;12.80;99.90
32201;DHT22;18701;45.588;5.288;2022-12-29T16:43:33;12.80;99.90
32201;DHT22;18701;45.588;5.288;2022-12-29T16:48:36;12.80;99.90
32201;DHT22;18701;45.588;5.288;2022-12-29T16:51:17;12.80;99.90
32201;DHT22;18701;45.588;5.288;2022-12-29T16:53:52;12.80;99.90
32201;DHT22;18701;45.588;5.288;2022-12-29T16:56:21;12.80;99.90
32201;DHT22;18701;45.588;5.288;2022-12-29T16:58:51;12.80;99.90
32201;DHT22;18701;45.588;5.288;2022-12-29T17:01:20;12.80;99.90
32201;DHT22;18701;45.588;5.288;2022-12-29T17:03:54;12.70;99.90
32201;DHT22;18701;45.588;5.288;2022-12-29T17:06:22;12.70;99.90
32201;DHT22;18701;45.588;5.288;2022-12-29T17:08:49;12.70;99.90
32201;DHT22;18701;45.588;5.288;2022-12-29T17:11:24;12.70;99.90
32201;DHT22;18701;45.588;5.288;2022-12-29T17:14:27;12.70;99.90
32201;DHT22;18701;45.588;5.288;2022-12-29T17:16:56;12.70;99.90
32201;DHT22;18701;45.588;5.288;2022-12-29T17:19:29;12.70;99.90
32201;DHT22;18701;45.588;5.288;2022-12-29T17:21:55;12.70;99.90
32201;DHT22;18701;45.588;5.288;2022-12-29T17:24:21;12.70;99.90
32201;DHT22;18701;45.588;5.288;2022-12-29T17:26:52;12.70;99.90
32201;DHT22;18701;45.588;5.288;2022-12-29T17:31:50;12.50;99.90
32201;DHT22;18701;45.588;5.288;2022-12-29T17:34:16;12.50;99.90
32201;DHT22;18701;45.588;5.288;2022-12-29T17:36:42;12.20;99.90
32201;DHT22;18701;45.588;5.288;2022-12-29T17:39:08;12.10;99.90
32201;DHT22;18701;45.588;5.288;2022-12-29T17:41:35;11.90;99.90
32201;DHT22;18701;45.588;5.288;2022-12-29T17:44:01;11.60;99.90
32201;DHT22;18701;45.588;5.288;2022-12-29T17:46:27;11.60;99.90
32201;DHT22;18701;45.588;5.288;2022-12-29T17:48:53;11.50;99.90
32201;DHT22;18701;45.588;5.288;2022-12-29T17:51:20;11.40;99.90
32201;DHT22;18701;45.588;5.288;2022-12-29T17:53:46;11.10;99.90
32201;DHT22;18701;45.588;5.288;2022-12-29T17:56:11;11.00;99.90
32201;DHT22;18701;45.588;5.288;2022-12-29T17:58:37;11.00;99.90
32201;DHT22;18701;45.588;5.288;2022-12-29T18:01:03;11.00;99.90
32201;DHT22;18701;45.588;5.288;2022-12-29T18:03:38;10.90;99.90
32201;DHT22;18701;45.588;5.288;2022-12-29T18:06:05;10.90;99.90